createdAt,value
2019-05-16T00:01:19.237Z,100630.09
2019-05-16T00:03:50.158Z,100634.09
2019-05-16T00:06:21.599Z,100628.05
2019-05-16T00:08:52.851Z,100632.02
2019-05-16T00:11:24.096Z,100633.77
2019-05-16T00:13:57.517Z,100627.03
2019-05-16T00:16:28.787Z,100624.09
2019-05-16T00:19:00.098Z,100623.76
2019-05-16T00:21:31.346Z,100630.67
2019-05-16T00:24:02.902Z,100627.91
2019-05-16T00:26:34.682Z,100619.94
2019-05-16T00:29:08.033Z,100618.05
2019-05-16T00:31:39.008Z,100619.94
2019-05-16T00:34:10.569Z,100615.97
2019-05-16T00:36:42.215Z,100618.05
2019-05-16T00:39:13.678Z,100623.39
2019-05-16T00:41:45.127Z,100618.22
2019-05-16T00:44:18.809Z,100617.53
2019-05-16T00:46:49.474Z,100612.15
2019-05-16T00:49:20.922Z,100608.88
2019-05-16T00:51:52.381Z,100608.54
2019-05-16T00:54:23.833Z,100610.80
2019-05-16T00:56:57.706Z,100602.82
2019-05-16T00:59:28.487Z,100603.47
2019-05-16T01:02:00.961Z,100602.78
2019-05-16T01:04:32.517Z,100601.20
2019-05-16T01:07:04.075Z,100605.72
2019-05-16T01:09:35.633Z,100602.77
2019-05-16T01:12:08.467Z,100609.19
2019-05-16T01:14:39.673Z,100609.70
2019-05-16T01:17:11.041Z,100612.83
2019-05-16T01:19:42.171Z,100613.89
2019-05-16T01:22:13.514Z,100617.67
2019-05-16T01:24:45.276Z,100617.34
2019-05-16T01:27:18.463Z,100616.48
2019-05-16T01:29:50.024Z,100613.71
2019-05-16T01:32:21.138Z,100615.61
2019-05-16T01:34:52.745Z,100616.66
2019-05-16T01:37:24.392Z,100613.56
2019-05-16T01:39:55.678Z,100614.06
2019-05-16T01:42:27.845Z,100608.75
2019-05-16T01:44:59.266Z,100610.82
2019-05-16T01:47:30.921Z,100615.47
2019-05-16T01:50:03.292Z,100607.02
2019-05-16T01:52:34.655Z,100621.20
2019-05-16T01:55:08.264Z,100610.31
2019-05-16T01:57:39.366Z,100609.77
2019-05-16T02:00:10.555Z,100608.91
2019-05-16T02:02:43.231Z,100606.51
2019-05-16T02:05:14.593Z,100609.27
2019-05-16T02:07:48.202Z,100611.34
2019-05-16T02:10:19.337Z,100618.08
2019-05-16T02:12:50.827Z,100617.20
2019-05-16T02:15:21.943Z,100617.56
2019-05-16T02:17:53.394Z,100616.86
2019-05-16T02:20:24.742Z,100615.66
2019-05-16T02:22:58.441Z,100616.34
2019-05-16T02:25:29.093Z,100613.23
2019-05-16T02:28:00.547Z,100618.59
2019-05-16T02:30:32.039Z,100618.27
2019-05-16T02:33:03.660Z,100617.03
2019-05-16T02:35:34.811Z,100618.94
2019-05-16T02:38:06.168Z,100619.81
2019-05-16T02:40:37.822Z,100616.87
2019-05-16T02:43:12.224Z,100613.41
2019-05-16T02:45:41.865Z,100616.17
2019-05-16T02:48:13.518Z,100619.81
2019-05-16T02:50:45.070Z,100620.33
2019-05-16T02:53:17.354Z,100617.91
2019-05-16T02:55:51.525Z,100620.83
2019-05-16T02:58:23.309Z,100621.02
2019-05-16T03:00:55.086Z,100618.22
2019-05-16T03:03:26.558Z,100624.78
2019-05-16T03:06:01.039Z,100621.32
2019-05-16T03:08:32.203Z,100618.22
2019-05-16T03:11:05.002Z,100611.62
2019-05-16T03:13:36.351Z,100616.24
2019-05-16T03:16:11.786Z,100612.01
2019-05-16T03:18:43.256Z,100618.32
2019-05-16T03:21:14.907Z,100625.34
2019-05-16T03:23:46.269Z,100624.77
2019-05-16T03:26:17.413Z,100621.97
2019-05-16T03:28:52.181Z,100624.34
2019-05-16T03:31:24.761Z,100620.97
2019-05-16T03:33:59.305Z,100622.47
2019-05-16T03:36:33.997Z,100621.35
2019-05-16T03:39:01.525Z,100618.84
2019-05-16T03:41:33.712Z,100622.20
2019-05-16T03:44:05.328Z,100620.01
2019-05-16T03:46:36.835Z,100620.42
2019-05-16T03:49:11.192Z,100621.94
2019-05-16T03:51:41.778Z,100626.05
2019-05-16T03:54:13.054Z,100635.44
2019-05-16T03:56:44.388Z,100628.66
2019-05-16T03:59:15.845Z,100631.38
2019-05-16T04:01:47.146Z,100623.08
2019-05-16T04:04:20.838Z,100624.84
2019-05-16T04:06:52.060Z,100623.70
2019-05-16T04:09:23.409Z,100622.31
2019-05-16T04:11:54.863Z,100623.82
2019-05-16T04:14:26.420Z,100625.80
2019-05-16T04:17:01.392Z,100626.54
2019-05-16T04:19:32.194Z,100625.97
2019-05-16T04:22:03.749Z,100627.70
2019-05-16T04:24:34.900Z,100626.33
2019-05-16T04:27:06.353Z,100629.23
2019-05-16T04:29:40.590Z,100628.80
2019-05-16T04:32:11.115Z,100627.86
2019-05-16T04:34:42.357Z,100629.86
2019-05-16T04:37:13.924Z,100630.25
2019-05-16T04:39:45.056Z,100631.38
2019-05-16T04:42:16.616Z,100624.43
2019-05-16T04:44:51.274Z,100618.48
2019-05-16T04:47:21.250Z,100624.72
2019-05-16T04:49:52.405Z,100623.15
2019-05-16T04:52:23.974Z,100623.84
2019-05-16T04:54:55.320Z,100614.05
2019-05-16T04:57:26.570Z,100618.06
2019-05-16T05:00:01.847Z,100613.63
2019-05-16T05:02:31.170Z,100618.08
2019-05-16T05:05:02.371Z,100619.91
2019-05-16T05:07:33.509Z,100613.20
2019-05-16T05:10:06.098Z,100608.64
2019-05-16T05:12:40.839Z,100613.53
2019-05-16T05:15:11.811Z,100611.17
2019-05-16T05:17:43.127Z,100607.87
2019-05-16T05:20:14.675Z,100610.14
2019-05-16T05:22:46.232Z,100608.03
2019-05-16T05:25:20.249Z,100601.80
2019-05-16T05:27:50.679Z,100614.40
2019-05-16T05:30:21.918Z,100607.38
2019-05-16T05:32:53.084Z,100608.95
2019-05-16T05:35:24.109Z,100605.97
2019-05-16T05:37:55.604Z,100612.72
2019-05-16T05:40:27.016Z,100610.47
2019-05-16T05:42:59.890Z,100617.44
2019-05-16T05:45:31.260Z,100619.17
2019-05-16T05:48:02.815Z,100615.04
2019-05-16T05:50:35.498Z,100607.16
2019-05-16T05:53:06.961Z,100613.47
2019-05-16T05:55:40.517Z,100615.02
2019-05-16T05:58:11.602Z,100609.28
2019-05-16T06:00:43.290Z,100607.49
2019-05-16T06:03:14.514Z,100607.56
2019-05-16T06:05:46.172Z,100603.78
2019-05-16T06:08:19.949Z,100605.47
2019-05-16T06:10:50.821Z,100604.50
2019-05-16T06:13:23.096Z,100601.31
2019-05-16T06:15:54.444Z,100600.50
2019-05-16T06:18:26.000Z,100603.30
2019-05-16T06:20:57.455Z,100600.80
2019-05-16T06:23:30.981Z,100595.65
2019-05-16T06:26:01.489Z,100604.26
2019-05-16T06:28:32.676Z,100597.00
2019-05-16T06:31:03.990Z,100601.91
2019-05-16T06:33:35.242Z,100602.27
2019-05-16T06:36:06.491Z,100597.48
2019-05-16T06:38:40.389Z,100596.81
2019-05-16T06:41:10.856Z,100606.64
2019-05-16T06:43:41.887Z,100602.67
2019-05-16T06:46:13.334Z,100603.63
2019-05-16T06:48:44.474Z,100602.28
2019-05-16T06:51:15.663Z,100601.69
2019-05-16T06:53:46.698Z,100604.16
2019-05-16T06:56:20.007Z,100602.13
2019-05-16T06:58:51.929Z,100613.83
2019-05-16T07:01:23.381Z,100614.20
2019-05-16T07:03:54.523Z,100612.02
2019-05-16T07:06:47.349Z,100614.34
2019-05-16T07:09:01.006Z,100618.86
2019-05-16T07:11:32.679Z,100621.38
2019-05-16T07:14:04.637Z,100622.70
2019-05-16T07:16:35.900Z,100626.82
2019-05-16T07:19:07.236Z,100621.52
2019-05-16T07:21:39.730Z,100623.95
2019-05-16T07:24:11.141Z,100629.45
2019-05-16T07:26:42.313Z,100626.95
2019-05-16T07:29:13.461Z,100619.84
2019-05-16T07:31:44.850Z,100623.59
2019-05-16T07:34:16.055Z,100624.09
2019-05-16T07:36:50.030Z,100621.03
2019-05-16T07:39:20.054Z,100624.17
2019-05-16T07:41:51.546Z,100619.66
2019-05-16T07:44:22.587Z,100612.35
2019-05-16T07:46:54.062Z,100609.41
2019-05-16T07:49:25.599Z,100613.05
2019-05-16T07:51:57.153Z,100609.30
2019-05-16T07:54:30.837Z,100608.91
2019-05-16T07:57:11.713Z,100608.98
2019-05-16T07:59:33.969Z,100605.44
2019-05-16T08:02:05.429Z,100606.85
2019-05-16T08:04:36.569Z,100603.47
2019-05-16T08:07:08.029Z,100610.98
2019-05-16T08:09:39.763Z,100605.66
2019-05-16T08:12:10.931Z,100608.83
2019-05-16T08:14:42.284Z,100602.36
2019-05-16T08:17:13.534Z,100594.07
2019-05-16T08:19:44.985Z,100589.34
2019-05-16T08:22:16.342Z,100586.52
2019-05-16T08:24:47.687Z,100583.88
2019-05-16T08:27:20.861Z,100582.73
2019-05-16T08:29:51.930Z,100583.49
2019-05-16T08:32:23.282Z,100585.87
2019-05-16T08:34:54.671Z,100592.23
2019-05-16T08:37:36.770Z,100582.81
2019-05-16T08:40:00.370Z,100581.55
2019-05-16T08:42:32.704Z,100573.22
2019-05-16T08:45:03.835Z,100572.95
2019-05-16T08:47:35.281Z,100573.75
2019-05-16T08:52:43.411Z,100567.69
2019-05-16T08:55:15.070Z,100565.38
2019-05-16T08:57:46.320Z,100573.42
2019-05-16T09:00:21.514Z,100570.29
2019-05-16T09:02:53.164Z,100565.86
2019-05-16T09:05:23.340Z,100565.87
2019-05-16T09:08:00.564Z,100563.95
2019-05-16T09:10:41.044Z,100570.80
2019-05-16T09:10:49.216Z,100559.84
2019-05-16T09:12:59.951Z,100561.91
2019-05-16T09:15:31.035Z,100561.45
2019-05-16T09:18:02.167Z,100560.34
2019-05-16T09:20:33.701Z,100557.20
2019-05-16T09:23:07.398Z,100549.63
2019-05-16T09:25:37.940Z,100552.00
2019-05-16T09:28:09.391Z,100555.86
2019-05-16T09:30:41.052Z,100550.45
2019-05-16T09:33:12.399Z,100551.08
2019-05-16T09:35:43.886Z,100556.15
2019-05-16T09:38:19.005Z,100543.48
2019-05-16T09:40:49.137Z,100540.31
2019-05-16T09:43:20.575Z,100543.81
2019-05-16T09:45:57.350Z,100545.09
2019-05-16T09:48:27.756Z,100536.05
2019-05-16T09:50:57.901Z,100538.24
2019-05-16T09:53:29.186Z,100538.56
2019-05-16T09:56:00.715Z,100532.09
2019-05-16T09:58:31.961Z,100534.14
2019-05-16T10:01:03.415Z,100531.84
2019-05-16T10:03:37.007Z,100533.65
2019-05-16T10:06:08.219Z,100526.04
2019-05-16T10:08:39.509Z,100528.17
2019-05-16T10:11:10.656Z,100520.46
2019-05-16T10:13:42.316Z,100515.57
2019-05-16T10:16:16.552Z,100519.54
2019-05-16T10:18:47.541Z,100517.09
2019-05-16T10:21:20.641Z,100518.16
2019-05-16T10:23:51.817Z,100513.35
2019-05-16T10:26:22.862Z,100511.92
2019-05-16T10:28:54.219Z,100521.56
2019-05-16T10:31:41.035Z,100510.81
2019-05-16T10:33:58.614Z,100511.05
2019-05-16T10:36:30.013Z,100511.91
2019-05-16T10:39:01.682Z,100515.21
2019-05-16T10:41:36.956Z,100509.36
2019-05-16T10:44:07.641Z,100519.42
2019-05-16T10:46:38.692Z,100514.61
2019-05-16T10:49:10.039Z,100517.80
2019-05-16T10:51:41.135Z,100510.87
2019-05-16T10:54:14.309Z,100504.80
2019-05-16T10:56:46.711Z,100505.01
2019-05-16T11:01:50.786Z,100494.77
2019-05-16T11:04:29.115Z,100499.42
2019-05-16T11:06:57.125Z,100505.67
2019-05-16T11:09:27.707Z,100500.50
2019-05-16T11:11:58.854Z,100493.38
2019-05-16T11:14:29.996Z,100491.37
2019-05-16T11:17:01.357Z,100491.98
2019-05-16T11:19:33.006Z,100488.53
2019-05-16T11:22:04.369Z,100491.02
2019-05-16T11:24:37.761Z,100490.09
2019-05-16T11:27:08.499Z,100483.09
2019-05-16T11:29:40.049Z,100485.66
2019-05-16T11:32:11.204Z,100484.50
2019-05-16T11:34:42.445Z,100483.77
2019-05-16T11:37:13.488Z,100487.00
2019-05-16T11:39:46.461Z,100479.36
2019-05-16T11:42:17.637Z,100478.61
2019-05-16T11:44:48.870Z,100474.69
2019-05-16T11:47:20.320Z,100467.30
2019-05-16T11:49:51.259Z,100467.00
2019-05-16T11:52:22.639Z,100467.08
2019-05-16T11:54:54.172Z,100459.20
2019-05-16T11:57:25.627Z,100456.61
2019-05-16T11:59:56.888Z,100458.43
2019-05-16T12:02:28.216Z,100455.22
2019-05-16T12:05:00.291Z,100447.88
2019-05-16T12:07:34.471Z,100445.27
2019-05-16T12:10:07.805Z,100448.00
2019-05-16T12:12:39.386Z,100439.05
2019-05-16T12:15:10.986Z,100440.50
2019-05-16T12:17:42.264Z,100437.44
2019-05-16T12:20:13.517Z,100430.64
2019-05-16T12:22:44.969Z,100433.93
2019-05-16T12:25:16.754Z,100431.26
2019-05-16T12:27:48.217Z,100430.25
2019-05-16T12:30:19.536Z,100428.53
2019-05-16T12:32:57.911Z,100431.62
2019-05-16T12:35:27.706Z,100421.07
2019-05-16T12:37:59.231Z,100420.99
2019-05-16T12:40:31.396Z,100419.34
2019-05-16T12:43:02.871Z,100413.36
2019-05-16T12:45:34.201Z,100418.34
2019-05-16T12:48:06.798Z,100419.42
2019-05-16T12:50:38.857Z,100414.53
2019-05-16T12:53:10.304Z,100415.86
2019-05-16T12:55:41.644Z,100413.31
2019-05-16T12:58:15.669Z,100407.46
2019-05-16T13:00:53.972Z,100401.45
2019-05-16T13:03:21.012Z,100398.09
2019-05-16T13:05:52.155Z,100391.91
2019-05-16T13:08:37.249Z,100392.64
2019-05-16T13:11:07.758Z,100384.57
2019-05-16T13:13:57.403Z,100383.23
2019-05-16T13:16:16.584Z,100383.08
2019-05-16T13:18:49.349Z,100377.80
2019-05-16T13:21:23.369Z,100374.88
2019-05-16T13:23:57.540Z,100372.72
2019-05-16T13:26:28.850Z,100373.92
2019-05-16T13:29:00.202Z,100368.87
2019-05-16T13:31:31.464Z,100379.89
2019-05-16T13:34:02.697Z,100360.84
2019-05-16T13:36:33.943Z,100363.38
2019-05-16T13:39:08.146Z,100361.09
2019-05-16T13:41:39.415Z,100363.19
2019-05-16T13:44:18.605Z,100359.58
2019-05-16T13:46:43.953Z,100360.61
2019-05-16T13:49:17.802Z,100355.16
2019-05-16T13:51:49.118Z,100362.84
2019-05-16T13:54:20.665Z,100363.78
2019-05-16T13:56:52.835Z,100363.23
2019-05-16T13:59:23.975Z,100362.20
2019-05-16T14:01:57.343Z,100361.50
2019-05-16T14:04:28.967Z,100362.00
2019-05-16T14:07:00.081Z,100357.52
2019-05-16T14:09:32.652Z,100358.39
2019-05-16T14:12:03.953Z,100351.38
2019-05-16T14:14:41.894Z,100358.16
2019-05-16T14:17:14.119Z,100360.30
2019-05-16T14:19:41.238Z,100353.55
2019-05-16T14:22:12.629Z,100352.23
2019-05-16T14:24:44.046Z,100348.27
2019-05-16T14:27:17.273Z,100353.86
2019-05-16T14:29:49.123Z,100357.38
2019-05-16T14:32:20.549Z,100357.00
2019-05-16T14:34:52.079Z,100347.16
2019-05-16T14:37:23.036Z,100350.91
2019-05-16T14:39:57.672Z,100348.44
2019-05-16T14:42:27.962Z,100348.52
2019-05-16T14:45:09.938Z,100339.27
2019-05-16T14:47:32.540Z,100337.66
2019-05-16T14:50:12.877Z,100341.75
2019-05-16T14:52:39.031Z,100347.75
2019-05-16T14:55:10.581Z,100346.60
2019-05-16T14:57:42.028Z,100348.08
2019-05-16T15:00:13.480Z,100341.95
2019-05-16T15:02:47.745Z,100339.18
2019-05-16T15:05:17.525Z,100345.77
2019-05-16T15:07:48.860Z,100340.33
2019-05-16T15:10:20.008Z,100342.42
2019-05-16T15:12:51.352Z,100343.36
2019-05-16T15:15:24.700Z,100344.69
2019-05-16T15:17:56.821Z,100336.67
2019-05-16T15:20:28.174Z,100340.93
2019-05-16T15:22:59.270Z,100336.38
2019-05-16T15:25:30.352Z,100338.11
2019-05-16T15:28:01.606Z,100344.97
2019-05-16T15:30:32.954Z,100339.75
2019-05-16T15:33:04.304Z,100337.72
2019-05-16T15:35:37.919Z,100339.98
2019-05-16T15:38:08.335Z,100342.71
2019-05-16T15:40:39.684Z,100342.51
2019-05-16T15:43:10.997Z,100337.62
2019-05-16T15:45:46.555Z,100341.05
2019-05-16T15:48:17.211Z,100339.34
2019-05-16T15:50:48.503Z,100345.14
2019-05-16T15:53:19.826Z,100335.64
2019-05-16T15:55:51.079Z,100328.56
2019-05-16T15:58:22.536Z,100338.55
2019-05-16T16:00:54.090Z,100333.48
2019-05-16T16:03:27.063Z,100327.55
2019-05-16T16:05:58.428Z,100333.77
2019-05-16T16:08:29.704Z,100336.86
2019-05-16T16:11:01.136Z,100332.97
2019-05-16T16:13:32.281Z,100341.26
2019-05-16T16:16:03.764Z,100336.17
2019-05-16T16:18:37.462Z,100348.97
2019-05-16T16:21:08.074Z,100341.50
2019-05-16T16:23:39.790Z,100347.25
2019-05-16T16:26:11.083Z,100338.17
2019-05-16T16:28:43.767Z,100343.05
2019-05-16T16:31:16.744Z,100345.21
2019-05-16T16:33:48.437Z,100345.34
2019-05-16T16:36:19.758Z,100350.28
2019-05-16T16:38:50.890Z,100347.62
2019-05-16T16:41:22.163Z,100347.88
2019-05-16T16:43:53.443Z,100356.67
2019-05-16T16:46:26.910Z,100358.88
2019-05-16T16:48:58.741Z,100359.83
2019-05-16T16:51:32.246Z,100360.49
2019-05-16T16:54:04.196Z,100365.91
2019-05-16T16:56:37.081Z,100359.59
2019-05-16T16:59:17.073Z,100354.52
2019-05-16T17:01:48.523Z,100357.38
2019-05-16T17:04:21.684Z,100364.16
2019-05-16T17:06:52.827Z,100368.42
2019-05-16T17:09:24.176Z,100365.64
2019-05-16T17:11:57.110Z,100364.78
2019-05-16T17:14:28.433Z,100369.75
2019-05-16T17:16:59.858Z,100360.66
2019-05-16T17:19:30.901Z,100368.81
2019-05-16T17:22:13.635Z,100367.47
2019-05-16T17:24:36.600Z,100365.41
2019-05-16T17:27:08.044Z,100368.12
2019-05-16T17:29:39.783Z,100363.77
2019-05-16T17:32:10.934Z,100356.74
2019-05-16T17:34:41.973Z,100367.55
2019-05-16T17:37:13.433Z,100365.75
2019-05-16T17:39:47.509Z,100372.87
2019-05-16T17:42:19.223Z,100385.77
2019-05-16T17:45:17.761Z,100385.80
2019-05-16T17:47:49.435Z,100381.73
2019-05-16T17:50:21.364Z,100380.70
2019-05-16T17:52:52.535Z,100385.27
2019-05-16T17:55:23.616Z,100387.55
2019-05-16T17:57:57.024Z,100385.34
2019-05-16T18:00:29.155Z,100388.84
2019-05-16T18:03:00.991Z,100396.00
2019-05-16T18:05:33.889Z,100392.56
2019-05-16T18:08:07.382Z,100398.53
2019-05-16T18:10:40.394Z,100399.07
2019-05-16T18:13:12.150Z,100395.03
2019-05-16T18:15:43.168Z,100391.27
2019-05-16T18:18:14.330Z,100393.57
2019-05-16T18:20:55.784Z,100402.48
2019-05-16T18:23:19.598Z,100395.31
2019-05-16T18:25:50.910Z,100397.66
2019-05-16T18:28:22.486Z,100397.77
2019-05-16T18:30:53.939Z,100391.36
2019-05-16T18:33:27.434Z,100390.45
2019-05-16T18:35:58.691Z,100401.39
2019-05-16T18:38:29.942Z,100408.68
2019-05-16T18:41:01.274Z,100403.66
2019-05-16T18:43:32.827Z,100394.56
2019-05-16T18:46:04.193Z,100395.73
2019-05-16T18:48:36.603Z,100401.12
2019-05-16T18:51:08.209Z,100402.52
2019-05-16T18:53:39.768Z,100397.16
2019-05-16T18:56:11.928Z,100398.62
2019-05-16T18:58:43.068Z,100406.61
2019-05-16T19:01:14.318Z,100411.78
2019-05-16T19:03:46.502Z,100412.00
2019-05-16T19:06:18.553Z,100408.23
2019-05-16T19:08:50.098Z,100413.30
2019-05-16T19:11:21.700Z,100411.56
2019-05-16T19:13:53.130Z,100412.11
2019-05-16T19:16:26.195Z,100407.30
2019-05-16T19:18:58.542Z,100412.15
2019-05-16T19:21:30.232Z,100412.25
2019-05-16T19:24:01.568Z,100413.84
2019-05-16T19:26:33.741Z,100420.61
2019-05-16T19:29:06.586Z,100412.96
2019-05-16T19:31:39.130Z,100410.58
2019-05-16T19:34:11.063Z,100411.12
2019-05-16T19:36:42.836Z,100411.98
2019-05-16T19:39:18.170Z,100414.95
2019-05-16T19:41:49.917Z,100413.78
2019-05-16T19:44:21.262Z,100414.48
2019-05-16T19:46:52.412Z,100411.69
2019-05-16T19:49:24.085Z,100414.00
2019-05-16T19:51:56.596Z,100410.98
2019-05-16T19:54:27.992Z,100414.47
2019-05-16T19:56:59.243Z,100412.09
2019-05-16T19:59:30.388Z,100407.48
2019-05-16T20:02:02.054Z,100407.49
2019-05-16T20:04:33.710Z,100415.19
2019-05-16T20:07:07.451Z,100413.70
2019-05-16T20:09:38.460Z,100402.30
2019-05-16T20:12:10.229Z,100405.38
2019-05-16T20:14:41.875Z,100405.80
2019-05-16T20:17:13.534Z,100411.66
2019-05-16T20:19:46.969Z,100408.86
2019-05-16T20:22:18.193Z,100414.08
2019-05-16T20:24:49.736Z,100415.47
2019-05-16T20:27:20.990Z,100418.02
2019-05-16T20:29:52.445Z,100422.00
2019-05-16T20:32:23.901Z,100424.89
2019-05-16T20:34:55.293Z,100426.01
2019-05-16T20:37:26.809Z,100432.80
2019-05-16T20:39:58.477Z,100424.94
2019-05-16T20:42:29.518Z,100428.80
2019-05-16T20:45:01.175Z,100426.09
2019-05-16T20:47:32.935Z,100429.70
2019-05-16T20:50:07.698Z,100439.30
2019-05-16T20:52:39.329Z,100447.19
2019-05-16T20:55:10.684Z,100447.25
2019-05-16T20:57:41.827Z,100447.00
2019-05-16T21:00:13.484Z,100449.64
2019-05-16T21:02:46.988Z,100447.33
2019-05-16T21:05:18.085Z,100447.95
2019-05-16T21:07:49.279Z,100452.50
2019-05-16T21:10:20.321Z,100448.03
2019-05-16T21:12:51.946Z,100455.19
2019-05-16T21:15:26.233Z,100460.95
2019-05-16T21:17:57.556Z,100463.73
2019-05-16T21:20:29.944Z,100465.85
2019-05-16T21:23:01.388Z,100468.69
2019-05-16T21:25:32.910Z,100468.78
2019-05-16T21:28:04.499Z,100469.81
2019-05-16T21:30:36.730Z,100461.22
2019-05-16T21:33:08.131Z,100470.69
2019-05-16T21:35:39.372Z,100465.65
2019-05-16T21:38:10.769Z,100460.14
2019-05-16T21:40:42.389Z,100452.42
2019-05-16T21:43:16.292Z,100453.08
2019-05-16T21:45:47.503Z,100457.25
2019-05-16T21:48:19.465Z,100458.49
2019-05-16T21:50:50.976Z,100466.16
2019-05-16T21:53:22.320Z,100458.55
2019-05-16T21:55:56.257Z,100454.38
2019-05-16T21:58:29.516Z,100455.86
2019-05-16T22:00:59.868Z,100441.50
2019-05-16T22:03:32.542Z,100446.23
2019-05-16T22:06:04.001Z,100445.57
2019-05-16T22:08:37.089Z,100443.05
2019-05-16T22:11:10.038Z,100444.32
2019-05-16T22:13:41.531Z,100439.69
2019-05-16T22:16:12.781Z,100439.55
2019-05-16T22:18:44.245Z,100434.46
2019-05-16T22:21:16.735Z,100432.61
2019-05-16T22:23:48.173Z,100434.86
2019-05-16T22:26:19.932Z,100429.83
2019-05-16T22:28:51.288Z,100431.05
2019-05-16T22:31:22.535Z,100433.48
2019-05-16T22:33:53.797Z,100433.16
2019-05-16T22:36:26.564Z,100430.75
2019-05-16T22:38:59.649Z,100430.43
2019-05-16T22:41:31.013Z,100429.49
2019-05-16T22:44:02.167Z,100434.33
2019-05-16T22:46:33.725Z,100435.98
2019-05-16T22:49:07.437Z,100436.19
2019-05-16T22:51:38.268Z,100435.00
2019-05-16T22:54:09.830Z,100434.05
2019-05-16T22:56:41.064Z,100439.21
2019-05-16T22:59:12.746Z,100433.30
2019-05-16T23:01:44.090Z,100434.53
2019-05-16T23:04:16.763Z,100432.27
2019-05-16T23:06:48.122Z,100426.91
2019-05-16T23:09:19.274Z,100423.67
2019-05-16T23:11:50.826Z,100420.94
2019-05-16T23:14:22.288Z,100418.36
2019-05-16T23:16:53.539Z,100417.84
2019-05-16T23:19:26.496Z,100417.22
2019-05-16T23:21:57.668Z,100415.79
2019-05-16T23:24:29.024Z,100413.73
2019-05-16T23:27:00.176Z,100412.70
2019-05-16T23:29:31.941Z,100412.63
2019-05-16T23:32:03.330Z,100409.19
2019-05-16T23:34:37.130Z,100407.80
2019-05-16T23:37:07.730Z,100415.66
2019-05-16T23:39:39.081Z,100408.48
2019-05-16T23:42:10.224Z,100405.43
2019-05-16T23:44:41.481Z,100412.05
2019-05-16T23:47:12.630Z,100407.09
2019-05-16T23:49:44.387Z,100411.26
2019-05-16T23:52:16.820Z,100413.28
2019-05-16T23:54:48.124Z,100412.41
2019-05-16T23:57:19.579Z,100427.66
2019-05-16T23:59:51.030Z,100425.20
